Time;durP1;ratioP1;P1;durP2;ratioP2;P2;SDS_P1;SDS_P2;PMS_P1;PMS_P2;Temp;Humidity;BMP_temperature;BMP_pressure;BME280_temperature;BME280_humidity;BME280_pressure;Samples;Min_cycle;Max_cycle;Signal;HPM_P1;HPM_P2
2022/10/21 00:00:52;;;;;;;3.47;2.57;;;;;;;10.59;nan;-24112.97;5093468;28;20169;-74
2022/10/21 00:03:18;;;;;;;3.23;2.27;;;;;;;10.64;nan;-24114.25;5092869;28;20640;-75
2022/10/21 00:05:43;;;;;;;3.40;2.10;;;;;;;10.22;nan;-24102.53;5093653;28;20542;-78
2022/10/21 00:08:09;;;;;;;3.00;2.67;;;;;;;10.39;nan;-24107.19;5093423;28;20173;-78
2022/10/21 00:10:34;;;;;;;3.80;2.50;;;;;;;10.06;nan;-24098.16;5074714;28;20187;-78
2022/10/21 00:12:59;;;;;;;4.13;2.67;;;;;;;10.34;nan;-24105.78;5074946;28;20633;-78
2022/10/21 00:15:25;;;;;;;3.13;2.23;;;;;;;10.35;nan;-24106.06;5074753;28;20259;-76
2022/10/21 00:17:50;;;;;;;3.60;2.53;;;;;;;10.03;nan;-24097.16;5093498;28;20535;-76
2022/10/21 00:20:16;;;;;;;8.37;2.77;;;;;;;10.15;nan;-24100.53;5092745;28;20185;-78
2022/10/21 00:22:41;;;;;;;4.23;2.40;;;;;;;10.00;nan;-24096.31;5092873;28;20174;-75
2022/10/21 00:25:07;;;;;;;3.23;2.67;;;;;;;10.26;nan;-24103.66;5093387;28;20589;-74
2022/10/21 00:27:32;;;;;;;3.40;2.40;;;;;;;10.14;nan;-24100.25;5092581;28;20166;-79
2022/10/21 00:29:58;;;;;;;3.33;2.60;;;;;;;9.86;nan;-24092.34;5092968;28;20689;-76
2022/10/21 00:32:23;;;;;;;4.70;2.90;;;;;;;9.97;nan;-24095.47;5074754;28;20189;-76
2022/10/21 00:34:48;;;;;;;4.00;2.13;;;;;;;9.60;nan;-24085.28;5074241;28;20635;-80
2022/10/21 00:37:16;;;;;;;3.60;2.30;;;;;;;9.49;nan;-24082.19;5090948;28;20185;-75
2022/10/21 00:39:42;;;;;;;3.33;2.53;;;;;;;9.43;nan;-24080.50;5092410;28;20177;-78
2022/10/21 00:42:16;;;;;;;3.53;2.60;;;;;;;9.85;nan;-24092.22;5092639;28;20264;-77
2022/10/21 00:44:42;;;;;;;4.07;2.60;;;;;;;9.94;nan;-24094.63;5092099;28;20165;-78
2022/10/21 00:47:14;;;;;;;3.73;2.60;;;;;;;9.80;nan;-24090.66;5092252;28;20709;-78
2022/10/21 00:49:48;;;;;;;3.37;2.20;;;;;;;9.75;nan;-24089.38;5092350;28;20212;-75
2022/10/21 00:52:21;;;;;;;2.90;2.40;;;;;;;9.41;nan;-24079.91;5092259;28;20210;-78
2022/10/21 00:54:49;;;;;;;3.80;2.27;;;;;;;9.36;nan;-24078.38;5073833;28;20613;-75
2022/10/21 00:57:15;;;;;;;9.80;2.83;;;;;;;9.59;nan;-24085.00;5092131;28;20173;-76
2022/10/21 00:59:46;;;;;;;2.67;2.10;;;;;;;9.69;nan;-24087.84;5092224;28;20173;-76
2022/10/21 01:02:11;;;;;;;4.63;2.53;;;;;;;9.65;nan;-24086.72;5073714;28;20165;-75
2022/10/21 01:04:37;;;;;;;8.00;2.57;;;;;;;9.58;nan;-24084.72;5073461;28;20180;-76
2022/10/21 01:07:02;;;;;;;3.17;2.30;;;;;;;9.23;nan;-24074.84;5091133;28;20162;-79
2022/10/21 01:09:29;;;;;;;6.07;2.60;;;;;;;9.27;nan;-24076.09;5091990;28;20616;-77
2022/10/21 01:11:55;;;;;;;4.37;2.63;;;;;;;9.41;nan;-24079.91;5073639;28;20169;-75
2022/10/21 01:14:55;;;;;;;4.33;2.73;;;;;;;9.54;nan;-24083.47;5092363;28;20178;-75
2022/10/21 01:17:37;;;;;;;3.90;2.43;;;;;;;9.44;nan;-24080.63;5092322;28;20177;-76
2022/10/21 01:20:17;;;;;;;4.37;2.53;;;;;;;9.09;nan;-24070.88;5073780;28;20173;-77
2022/10/21 01:23:18;;;;;;;3.43;2.53;;;;;;;9.48;nan;-24081.91;5072936;28;20568;-75
2022/10/21 01:26:05;;;;;;;4.43;2.53;;;;;;;9.45;nan;-24081.06;5091554;28;20222;-76
2022/10/21 01:28:40;;;;;;;6.27;2.77;;;;;;;9.52;nan;-24083.03;5092198;28;20181;-77
2022/10/21 01:31:20;;;;;;;3.50;2.20;;;;;;;9.51;nan;-24082.75;5073450;28;20230;-78
2022/10/21 01:33:59;;;;;;;6.60;2.67;;;;;;;9.48;nan;-24081.91;5092071;28;20173;-77
2022/10/21 01:36:41;;;;;;;4.37;2.50;;;;;;;9.17;nan;-24073.13;5092070;28;20287;-77
2022/10/21 01:39:27;;;;;;;3.13;2.40;;;;;;;9.45;nan;-24081.06;5091879;28;20185;-76
2022/10/21 01:42:31;;;;;;;2.60;2.10;;;;;;;9.45;nan;-24081.06;5074314;28;20192;-79
2022/10/21 01:45:12;;;;;;;3.23;2.50;;;;;;;9.44;nan;-24080.78;5051775;28;20690;-78
2022/10/21 01:47:50;;;;;;;3.77;2.60;;;;;;;9.02;nan;-24068.91;5092221;28;20256;-76
2022/10/21 01:50:21;;;;;;;5.73;2.70;;;;;;;9.26;nan;-24075.81;5074075;28;20653;-76
2022/10/21 01:52:51;;;;;;;3.27;2.47;;;;;;;9.18;nan;-24073.56;5092860;28;20187;-77
2022/10/21 01:55:20;;;;;;;5.43;2.97;;;;;;;9.22;nan;-24074.56;5073642;28;20672;-78
2022/10/21 01:57:53;;;;;;;3.10;2.67;;;;;;;9.30;nan;-24076.81;5074167;28;20262;-75
2022/10/21 02:00:19;;;;;;;4.47;2.37;;;;;;;9.10;nan;-24071.16;5093526;28;20604;-74
2022/10/21 02:02:47;;;;;;;4.70;2.80;;;;;;;9.07;nan;-24070.44;5093207;28;20170;-77
2022/10/21 02:05:22;;;;;;;3.37;2.43;;;;;;;9.15;nan;-24072.72;5092598;28;20202;-75
2022/10/21 02:07:48;;;;;;;4.33;2.67;;;;;;;9.03;nan;-24069.19;5092084;28;20263;-80
2022/10/21 02:10:15;;;;;;;5.87;2.73;;;;;;;9.05;nan;-24069.88;5091498;28;20169;-77
2022/10/21 02:12:43;;;;;;;5.33;3.20;;;;;;;8.73;nan;-24060.84;5091486;28;20177;-78
2022/10/21 02:15:12;;;;;;;5.43;3.00;;;;;;;8.96;nan;-24067.19;5091466;28;20193;-77
2022/10/21 02:17:41;;;;;;;7.77;2.90;;;;;;;8.67;nan;-24059.28;5091855;28;20230;-77
2022/10/21 02:20:09;;;;;;;3.83;3.00;;;;;;;8.56;nan;-24056.03;5091379;28;20192;-78
2022/10/21 02:22:36;;;;;;;5.13;3.10;;;;;;;8.47;nan;-24053.63;5091430;28;20177;-77
2022/10/21 02:25:14;;;;;;;5.10;3.40;;;;;;;8.86;nan;-24064.50;5092919;28;20169;-74
2022/10/21 02:27:39;;;;;;;5.30;3.13;;;;;;;8.82;nan;-24063.38;5111562;28;20253;-76
2022/10/21 02:30:05;;;;;;;4.87;3.03;;;;;;;8.52;nan;-24054.88;5096121;28;20205;-78
2022/10/21 02:32:39;;;;;;;3.83;2.93;;;;;;;8.71;nan;-24060.41;5091501;28;20177;-77
2022/10/21 02:35:29;;;;;;;5.10;2.97;;;;;;;8.70;nan;-24059.97;5094595;28;20212;-75
2022/10/21 02:38:03;;;;;;;5.30;3.50;;;;;;;8.73;nan;-24060.84;5095103;28;20177;-74
2022/10/21 02:40:41;;;;;;;5.63;3.13;;;;;;;8.84;nan;-24063.94;5076885;28;20181;-78
2022/10/21 02:43:15;;;;;;;3.40;2.60;;;;;;;8.50;nan;-24054.31;5094619;28;20230;-78
2022/10/21 02:45:41;;;;;;;5.83;3.17;;;;;;;8.63;nan;-24058.00;5095033;28;20178;-76
2022/10/21 02:48:06;;;;;;;4.77;3.40;;;;;;;8.73;nan;-24060.97;5095073;28;20169;-75
2022/10/21 02:50:32;;;;;;;6.70;3.77;;;;;;;8.95;nan;-24067.06;5094700;28;20184;-78
2022/10/21 02:52:57;;;;;;;4.10;3.20;;;;;;;9.10;nan;-24071.31;5094285;28;20186;-78
2022/10/21 02:55:23;;;;;;;4.93;3.30;;;;;;;8.75;nan;-24061.53;5076673;28;20302;-79
2022/10/21 02:57:48;;;;;;;4.90;3.37;;;;;;;8.79;nan;-24062.53;5094154;28;20644;-76
2022/10/21 03:00:14;;;;;;;3.13;2.67;;;;;;;8.85;nan;-24064.38;5094539;28;20539;-77
2022/10/21 03:02:40;;;;;;;4.63;3.57;;;;;;;8.88;nan;-24064.94;5094914;28;20226;-79
2022/10/21 03:05:07;;;;;;;5.03;3.30;;;;;;;8.92;nan;-24066.06;5075902;28;20185;-77
2022/10/21 03:07:33;;;;;;;6.33;3.27;;;;;;;8.92;nan;-24066.22;5094923;28;20174;-78
2022/10/21 03:09:58;;;;;;;4.70;2.73;;;;;;;8.86;nan;-24064.66;5094107;28;20177;-78
2022/10/21 03:12:24;;;;;;;8.10;3.57;;;;;;;8.68;nan;-24059.41;5094360;28;20671;-78
2022/10/21 03:14:49;;;;;;;6.67;3.63;;;;;;;8.77;nan;-24061.97;5094539;28;20169;-79
2022/10/21 03:17:14;;;;;;;4.67;3.13;;;;;;;8.52;nan;-24055.03;5076323;28;20622;-78
2022/10/21 03:19:40;;;;;;;4.13;3.33;;;;;;;8.39;nan;-24051.34;5076177;28;20169;-77
2022/10/21 03:22:05;;;;;;;4.93;3.50;;;;;;;8.47;nan;-24053.63;5076214;28;20688;-78
2022/10/21 03:24:31;;;;;;;6.40;3.63;;;;;;;8.14;nan;-24044.28;5094401;28;20232;-77
2022/10/21 03:26:56;;;;;;;5.70;3.43;;;;;;;8.27;nan;-24048.09;5076467;28;20256;-74
2022/10/21 03:29:21;;;;;;;6.83;3.77;;;;;;;8.03;nan;-24041.28;5093853;28;20648;-79
2022/10/21 03:31:47;;;;;;;6.07;3.97;;;;;;;8.19;nan;-24045.81;5075989;28;20260;-77
2022/10/21 03:34:12;;;;;;;6.03;3.57;;;;;;;6.31;nan;-23992.94;5094008;28;20219;-76
2022/10/21 03:36:38;;;;;;;5.77;3.47;;;;;;;7.69;nan;-24031.81;5093817;28;20242;-75
2022/10/21 03:39:03;;;;;;;8.27;3.70;;;;;;;7.76;nan;-24033.78;5093940;28;20179;-79
2022/10/21 03:41:29;;;;;;;5.10;3.40;;;;;;;7.87;nan;-24036.91;5094402;28;20165;-79
2022/10/21 03:43:54;;;;;;;6.17;3.60;;;;;;;8.01;nan;-24040.72;5093509;28;20174;-76
2022/10/21 03:46:19;;;;;;;6.63;3.73;;;;;;;7.50;nan;-24026.56;5093206;28;20177;-75
2022/10/21 03:48:45;;;;;;;5.93;3.47;;;;;;;7.02;nan;-24012.94;5094246;28;20157;-76
2022/10/21 03:51:10;;;;;;;6.67;3.77;;;;;;;7.12;nan;-24015.78;5093867;28;20200;-78
2022/10/21 03:53:36;;;;;;;8.07;4.07;;;;;;;7.43;nan;-24024.56;5075465;28;20212;-77
2022/10/21 03:56:01;;;;;;;5.47;3.47;;;;;;;7.45;nan;-24025.13;5093815;28;20721;-77
2022/10/21 03:58:27;;;;;;;5.23;3.40;;;;;;;7.31;nan;-24021.03;5093864;28;20176;-77
2022/10/21 04:00:54;;;;;;;7.13;3.90;;;;;;;7.34;nan;-24021.88;5075488;28;20200;-77
2022/10/21 04:03:20;;;;;;;6.40;3.67;;;;;;;7.21;nan;-24018.34;5075824;28;20184;-75
2022/10/21 04:05:45;;;;;;;4.43;3.10;;;;;;;7.12;nan;-24015.66;5072065;28;20561;-78
2022/10/21 04:08:11;;;;;;;7.50;3.83;;;;;;;7.13;nan;-24016.06;5088469;28;20187;-78
2022/10/21 04:10:37;;;;;;;6.23;3.97;;;;;;;7.09;nan;-24014.94;5092895;28;20563;-77
2022/10/21 04:13:02;;;;;;;5.87;3.93;;;;;;;7.04;nan;-24013.66;5075154;28;20173;-77
2022/10/21 04:15:28;;;;;;;5.37;2.93;;;;;;;7.08;nan;-24014.78;5093121;28;20216;-79
2022/10/21 04:17:53;;;;;;;5.73;3.57;;;;;;;7.15;nan;-24016.50;5075006;28;20173;-77
2022/10/21 04:20:19;;;;;;;8.73;4.10;;;;;;;7.25;nan;-24019.47;5074365;28;20545;-77
2022/10/21 04:22:44;;;;;;;5.93;3.27;;;;;;;6.85;nan;-24008.25;5073854;28;20173;-78
2022/10/21 04:25:09;;;;;;;5.63;3.43;;;;;;;7.01;nan;-24012.66;5074033;28;20166;-77
2022/10/21 04:27:35;;;;;;;7.97;3.40;;;;;;;7.23;nan;-24018.91;5074298;28;20178;-78
2022/10/21 04:30:00;;;;;;;5.00;3.20;;;;;;;7.37;nan;-24022.88;5092381;28;20173;-77
2022/10/21 04:32:26;;;;;;;5.27;3.40;;;;;;;7.25;nan;-24019.34;5074583;28;20175;-78
2022/10/21 04:34:51;;;;;;;5.33;3.30;;;;;;;7.36;nan;-24022.59;5093056;28;20253;-75
2022/10/21 04:37:16;;;;;;;4.20;3.40;;;;;;;7.44;nan;-24024.88;5074483;28;20198;-75
2022/10/21 04:39:42;;;;;;;7.97;3.53;;;;;;;7.48;nan;-24026.00;5072741;28;20177;-75
2022/10/21 04:42:07;;;;;;;9.87;4.90;;;;;;;7.42;nan;-24024.28;5086352;28;20213;-77
2022/10/21 04:44:33;;;;;;;11.27;4.43;;;;;;;7.64;nan;-24030.38;5078606;28;20188;-75
2022/10/21 04:46:58;;;;;;;6.10;3.93;;;;;;;7.33;nan;-24021.59;5077559;28;20254;-75
2022/10/21 04:49:24;;;;;;;9.90;3.60;;;;;;;7.18;nan;-24017.34;5078775;28;20287;-77
2022/10/21 04:51:49;;;;;;;5.23;3.03;;;;;;;7.84;nan;-24035.91;5069562;28;20178;-80
2022/10/21 04:54:15;;;;;;;6.03;3.80;;;;;;;7.97;nan;-24039.72;5086084;28;20546;-80
2022/10/21 04:56:41;;;;;;;7.13;3.73;;;;;;;7.81;nan;-24035.22;5086194;28;20212;-79
2022/10/21 04:59:06;;;;;;;6.10;3.47;;;;;;;8.03;nan;-24041.16;5077818;28;20693;-79
2022/10/21 05:01:32;;;;;;;7.07;4.27;;;;;;;6.40;nan;-23995.63;5074326;28;20182;-79
2022/10/21 05:03:57;;;;;;;7.77;4.27;;;;;;;8.13;nan;-24044.00;5091413;28;20189;-78
2022/10/21 05:06:23;;;;;;;9.33;3.77;;;;;;;8.11;nan;-24043.56;5067723;28;20702;-79
2022/10/21 05:08:48;;;;;;;8.57;4.63;;;;;;;8.29;nan;-24048.66;5070241;28;20185;-79
2022/10/21 05:11:13;;;;;;;7.00;4.40;;;;;;;8.09;nan;-24042.84;5077404;28;20174;-78
2022/10/21 05:13:39;;;;;;;5.60;3.60;;;;;;;8.46;nan;-24053.19;5085610;28;20182;-77
2022/10/21 05:16:05;;;;;;;12.73;4.53;;;;;;;8.54;nan;-24055.59;5079018;28;20258;-77
2022/10/21 05:18:30;;;;;;;12.30;4.33;;;;;;;8.71;nan;-24060.25;5084608;28;20268;-76
2022/10/21 05:20:56;;;;;;;9.17;4.53;;;;;;;8.84;nan;-24064.09;5078260;28;20536;-76
2022/10/21 05:23:22;;;;;;;6.00;4.20;;;;;;;8.73;nan;-24060.97;5068232;28;20230;-78
2022/10/21 05:25:50;;;;;;;9.83;3.53;;;;;;;8.98;nan;-24067.75;5079889;28;20203;-75
2022/10/21 05:28:16;;;;;;;7.57;4.50;;;;;;;9.09;nan;-24071.03;5078344;28;20190;-76
2022/10/21 05:30:42;;;;;;;6.47;4.37;;;;;;;9.18;nan;-24073.56;5076700;28;20267;-77
2022/10/21 05:33:07;;;;;;;8.33;4.90;;;;;;;8.91;nan;-24065.94;5078426;28;20645;-75
2022/10/21 05:35:33;;;;;;;9.33;4.97;;;;;;;9.33;nan;-24077.66;5076121;28;20208;-78
2022/10/21 05:37:58;;;;;;;8.93;5.10;;;;;;;9.62;nan;-24085.84;5078047;28;20228;-80
2022/10/21 05:40:24;;;;;;;9.70;4.90;;;;;;;9.42;nan;-24080.06;5077063;28;20604;-75
2022/10/21 05:42:49;;;;;;;7.57;4.87;;;;;;;9.47;nan;-24081.63;5066907;28;20552;-79
2022/10/21 05:45:15;;;;;;;8.40;5.30;;;;;;;9.82;nan;-24091.22;5069724;28;20585;-76
2022/10/21 05:47:40;;;;;;;7.93;4.37;;;;;;;9.88;nan;-24093.06;5068656;28;20568;-80
2022/10/21 05:50:08;;;;;;;7.93;5.40;;;;;;;10.10;nan;-24099.13;5063604;28;20173;-77
2022/10/21 05:52:33;;;;;;;8.60;4.40;;;;;;;9.80;nan;-24090.66;5079081;28;20298;-77
2022/10/21 05:54:59;;;;;;;9.30;5.30;;;;;;;10.05;nan;-24097.88;5078116;28;20668;-76
2022/10/21 05:57:24;;;;;;;9.30;4.93;;;;;;;10.24;nan;-24103.09;5068819;28;20700;-81
2022/10/21 05:59:50;;;;;;;9.20;4.60;;;;;;;10.26;nan;-24103.53;5087382;28;20215;-81
2022/10/21 06:02:15;;;;;;;10.07;4.57;;;;;;;10.28;nan;-24104.06;5068720;28;20685;-74
2022/10/21 06:04:41;;;;;;;8.37;4.43;;;;;;;10.36;nan;-24106.34;5076974;28;20204;-79
2022/10/21 06:07:07;;;;;;;8.23;4.93;;;;;;;10.48;nan;-24109.88;5077770;28;20181;-77
2022/10/21 06:09:32;;;;;;;10.87;5.00;;;;;;;10.34;nan;-24105.91;5078418;28;20339;-76
2022/10/21 06:11:58;;;;;;;8.67;4.57;;;;;;;10.52;nan;-24111.00;5080759;28;20196;-76
2022/10/21 06:14:24;;;;;;;8.53;4.57;;;;;;;10.94;nan;-24122.69;5082341;28;20186;-76
2022/10/21 06:16:50;;;;;;;8.00;4.70;;;;;;;11.12;nan;-24127.50;5084688;28;20201;-78
2022/10/21 06:19:15;;;;;;;8.00;4.80;;;;;;;11.33;nan;-24133.41;5070643;28;20242;-77
2022/10/21 06:21:40;;;;;;;6.57;4.23;;;;;;;11.32;nan;-24133.28;5082333;28;20196;-78
2022/10/21 06:24:06;;;;;;;10.87;6.00;;;;;;;11.42;nan;-24136.09;5081327;28;20226;-76
2022/10/21 06:26:31;;;;;;;8.07;5.13;;;;;;;11.42;nan;-24135.97;5081929;28;20192;-78
2022/10/21 06:28:57;;;;;;;9.27;6.17;;;;;;;11.07;nan;-24126.22;5068102;28;20181;-76
2022/10/21 06:31:22;;;;;;;10.00;5.30;;;;;;;11.39;nan;-24135.25;5078366;28;20300;-78
2022/10/21 06:33:48;;;;;;;9.57;5.43;;;;;;;11.13;nan;-24127.91;5080398;28;20607;-74
2022/10/21 06:36:14;;;;;;;12.40;6.27;;;;;;;11.31;nan;-24132.84;5079662;28;20204;-78
2022/10/21 06:38:40;;;;;;;9.95;5.35;;;;;;;11.60;nan;-24140.88;5084189;28;20210;-80
2022/10/21 06:41:09;;;;;;;14.70;7.75;;;;;;;11.49;nan;-24137.94;5079095;28;20681;-78
2022/10/21 06:43:34;;;;;;;19.10;9.00;;;;;;;11.50;nan;-24138.34;5079980;28;20284;-77
2022/10/21 06:46:07;;;;;;;22.83;10.27;;;;;;;11.77;nan;-24145.69;5080563;28;20711;-76
2022/10/21 06:48:33;;;;;;;17.67;9.80;;;;;;;10.79;nan;-24118.34;5086140;28;20188;-74
2022/10/21 06:51:03;;;;;;;18.23;8.73;;;;;;;11.90;nan;-24149.34;5083567;28;21031;-76
2022/10/21 06:53:29;;;;;;;14.40;8.07;;;;;;;12.02;nan;-24152.72;5060520;28;20181;-77
2022/10/21 06:56:08;;;;;;;16.45;8.20;;;;;;;12.17;nan;-24156.78;5080734;28;20217;-78
2022/10/21 06:58:36;;;;;;;14.52;7.97;;;;;;;12.13;nan;-24155.81;5077959;28;20273;-78
2022/10/21 07:01:09;;;;;;;17.17;8.10;;;;;;;12.37;nan;-24162.44;5069120;28;20176;-78
2022/10/21 07:03:35;;;;;;;16.17;8.68;;;;;;;12.50;nan;-24165.94;5076538;28;20185;-77
2022/10/21 07:06:00;;;;;;;18.48;9.20;;;;;;;12.42;nan;-24163.69;5079308;28;20173;-77
2022/10/21 07:08:28;;;;;;;17.08;8.80;;;;;;;11.79;nan;-24146.38;5077295;28;20217;-76
2022/10/21 07:10:54;;;;;;;17.52;8.65;;;;;;;12.46;nan;-24164.81;5078332;28;20182;-76
2022/10/21 07:13:20;;;;;;;17.92;9.57;;;;;;;12.70;nan;-24171.56;5079406;28;20181;-79
2022/10/21 07:15:46;;;;;;;13.00;7.18;;;;;;;12.94;nan;-24178.31;5077738;28;20257;-80
2022/10/21 07:18:11;;;;;;;14.20;5.93;;;;;;;13.26;nan;-24187.31;5084087;28;20578;-76
2022/10/21 07:20:36;;;;;;;11.52;5.90;;;;;;;13.03;nan;-24180.72;5076220;28;20185;-78
2022/10/21 07:23:02;;;;;;;11.55;5.75;;;;;;;12.97;nan;-24179.03;5066126;28;20229;-77
2022/10/21 07:25:27;;;;;;;13.52;6.57;;;;;;;13.46;nan;-24192.78;5083557;28;20193;-80
2022/10/21 07:27:53;;;;;;;13.43;6.55;;;;;;;13.29;nan;-24188.03;5080226;28;20205;-77
2022/10/21 07:30:22;;;;;;;16.45;6.60;;;;;;;13.12;nan;-24183.25;5079833;28;20175;-76
2022/10/21 07:32:47;;;;;;;14.32;7.03;;;;;;;13.37;nan;-24190.25;5067967;28;20178;-78
2022/10/21 07:35:13;;;;;;;15.07;7.40;;;;;;;13.54;nan;-24194.91;5078977;28;20188;-77
2022/10/21 07:37:38;;;;;;;13.15;6.45;;;;;;;13.80;nan;-24202.19;5083307;28;20670;-75
2022/10/21 07:40:06;;;;;;;10.85;6.55;;;;;;;13.93;nan;-24205.72;5079860;28;20250;-76
2022/10/21 07:42:32;;;;;;;16.02;7.82;;;;;;;13.64;nan;-24197.72;5076885;28;20169;-78
2022/10/21 07:45:00;;;;;;;14.75;7.47;;;;;;;13.69;nan;-24199.13;5079650;28;20192;-78
2022/10/21 07:47:25;;;;;;;11.88;6.72;;;;;;;13.55;nan;-24195.31;5082816;28;20201;-78
2022/10/21 07:49:51;;;;;;;14.43;7.03;;;;;;;13.31;nan;-24188.44;5068381;28;20193;-75
2022/10/21 07:52:16;;;;;;;11.93;5.63;;;;;;;13.40;nan;-24191.13;5078110;28;20174;-75
2022/10/21 07:54:42;;;;;;;13.00;6.45;;;;;;;13.86;nan;-24203.75;5078849;28;20185;-78
2022/10/21 07:57:08;;;;;;;15.43;6.70;;;;;;;14.06;nan;-24209.50;5068184;28;20205;-78
2022/10/21 07:59:33;;;;;;;15.90;7.28;;;;;;;14.04;nan;-24208.94;5077012;28;20182;-78
2022/10/21 08:01:58;;;;;;;11.63;6.47;;;;;;;13.85;nan;-24203.47;5067711;28;20691;-79
2022/10/21 08:04:28;;;;;;;15.07;7.70;;;;;;;13.88;nan;-24204.31;5066754;28;20239;-79
2022/10/21 08:06:54;;;;;;;14.18;6.50;;;;;;;13.65;nan;-24198.13;5078019;28;20178;-78
2022/10/21 08:09:20;;;;;;;9.68;4.95;;;;;;;13.89;nan;-24204.59;5077630;28;20667;-77
2022/10/21 08:11:45;;;;;;;8.77;5.32;;;;;;;14.27;nan;-24215.25;5078439;28;20246;-76
2022/10/21 08:14:11;;;;;;;8.32;4.45;;;;;;;14.18;nan;-24212.59;5066778;28;20212;-76
2022/10/21 08:16:38;;;;;;;10.82;4.30;;;;;;;14.18;nan;-24212.72;5078098;28;20729;-77
2022/10/21 08:19:06;;;;;;;7.85;4.30;;;;;;;14.71;nan;-24227.47;5079007;28;20178;-75
2022/10/21 08:21:32;;;;;;;8.55;4.43;;;;;;;14.85;nan;-24231.38;5059035;28;20199;-79
2022/10/21 08:24:00;;;;;;;8.00;4.05;;;;;;;14.51;nan;-24222.00;5076611;28;20244;-79
2022/10/21 08:26:26;;;;;;;7.22;3.90;;;;;;;14.88;nan;-24232.22;5074008;28;20201;-78
2022/10/21 08:28:51;;;;;;;6.03;3.92;;;;;;;15.32;nan;-24244.41;5056823;28;20170;-80
2022/10/21 08:31:20;;;;;;;7.90;4.00;;;;;;;15.14;nan;-24239.38;5072671;28;20638;-79
2022/10/21 08:33:46;;;;;;;7.15;4.15;;;;;;;15.38;nan;-24245.94;5057767;28;20255;-77
2022/10/21 08:36:17;;;;;;;7.18;4.18;;;;;;;15.38;nan;-24246.09;5054960;28;20199;-75
2022/10/21 08:38:44;;;;;;;8.00;4.05;;;;;;;15.53;nan;-24250.16;5057878;28;20174;-78
2022/10/21 08:41:28;;;;;;;7.32;4.03;;;;;;;15.81;nan;-24257.84;5057436;28;20182;-80
2022/10/21 08:44:16;;;;;;;7.95;4.28;;;;;;;15.58;nan;-24251.41;5056789;28;20311;-77
2022/10/21 08:46:54;;;;;;;6.72;3.97;;;;;;;15.37;nan;-24245.66;5045504;28;20285;-80
2022/10/21 08:49:41;;;;;;;6.82;3.85;;;;;;;15.48;nan;-24248.91;5056639;28;20194;-79
2022/10/21 08:52:21;;;;;;;7.88;3.53;;;;;;;15.77;nan;-24256.88;5058104;28;20264;-78
2022/10/21 08:54:55;;;;;;;7.43;4.30;;;;;;;15.74;nan;-24256.03;5056813;28;20239;-78
2022/10/21 08:57:21;;;;;;;9.13;4.50;;;;;;;16.01;nan;-24263.44;5055129;28;20205;-76
2022/10/21 08:59:47;;;;;;;7.95;4.93;;;;;;;15.72;nan;-24255.34;5055349;28;20198;-77
2022/10/21 09:02:12;;;;;;;10.02;5.22;;;;;;;15.35;nan;-24245.25;5056321;28;20617;-78
2022/10/21 09:05:06;;;;;;;7.75;4.68;;;;;;;15.45;nan;-24247.91;5054172;28;20695;-76
2022/10/21 09:07:52;;;;;;;10.57;5.00;;;;;;;15.43;nan;-24247.50;5056640;28;20177;-76
2022/10/21 09:10:50;;;;;;;9.50;4.85;;;;;;;15.67;nan;-24254.06;5055261;28;20186;-76
2022/10/21 09:13:38;;;;;;;8.75;5.20;;;;;;;15.48;nan;-24248.75;5039605;28;20247;-77
2022/10/21 09:16:22;;;;;;;8.93;5.50;;;;;;;15.80;nan;-24257.72;5054221;28;20201;-79
2022/10/21 09:19:15;;;;;;;11.90;5.90;;;;;;;15.90;nan;-24260.50;5055921;28;20189;-76
2022/10/21 09:21:55;;;;;;;11.15;5.72;;;;;;;16.32;nan;-24272.13;5054911;28;20210;-77
2022/10/21 09:24:46;;;;;;;8.25;4.95;;;;;;;16.25;nan;-24270.03;5071899;28;20292;-76
2022/10/21 09:27:12;;;;;;;9.55;5.28;;;;;;;16.18;nan;-24268.06;5075870;28;20279;-79
2022/10/21 09:29:43;;;;;;;11.65;5.18;;;;;;;16.50;nan;-24276.88;5076113;28;20219;-76
2022/10/21 09:32:18;;;;;;;11.10;5.47;;;;;;;16.49;nan;-24276.72;5074769;28;20174;-76
2022/10/21 09:35:12;;;;;;;9.82;5.18;;;;;;;16.17;nan;-24267.94;5075556;28;20227;-76
2022/10/21 09:37:46;;;;;;;9.82;5.72;;;;;;;16.11;nan;-24266.09;5075084;28;20196;-77
2022/10/21 09:40:15;;;;;;;10.50;5.72;;;;;;;15.95;nan;-24261.63;5076051;28;20306;-75
2022/10/21 09:42:40;;;;;;;13.10;7.00;;;;;;;16.09;nan;-24265.56;5063864;28;20272;-76
2022/10/21 09:45:19;;;;;;;10.20;6.03;;;;;;;16.62;nan;-24280.38;5083411;28;20267;-76
2022/10/21 09:47:52;;;;;;;11.57;6.40;;;;;;;16.46;nan;-24275.88;5081524;28;20182;-77
2022/10/21 09:50:18;;;;;;;9.98;5.53;;;;;;;16.65;nan;-24281.22;5087654;28;20640;-77
2022/10/21 09:52:51;;;;;;;11.43;5.63;;;;;;;16.64;nan;-24280.94;5082416;28;20194;-79
2022/10/21 09:55:17;;;;;;;11.98;5.43;;;;;;;16.69;nan;-24282.31;5082520;28;20180;-77
2022/10/21 09:58:26;;;;;;;11.10;5.82;;;;;;;16.73;nan;-24283.31;5082536;28;20186;-77
2022/10/21 10:00:52;;;;;;;11.32;5.75;;;;;;;16.56;nan;-24278.69;5047541;28;20688;-75
2022/10/21 10:03:36;;;;;;;10.77;5.43;;;;;;;;;;5069991;28;20640;-78
2022/10/21 10:06:04;;;;;;;9.55;5.35;;;;;;;17.16;nan;-24295.16;5081474;28;20176;-75
2022/10/21 10:08:38;;;;;;;9.85;5.30;;;;;;;16.87;nan;-24287.22;5066166;28;20238;-75
2022/10/21 10:11:13;;;;;;;12.43;6.13;;;;;;;17.21;nan;-24296.56;5082637;28;20192;-76
2022/10/21 10:13:43;;;;;;;8.93;4.95;;;;;;;17.09;nan;-24293.34;5066077;28;20185;-77
2022/10/21 10:16:27;;;;;;;9.73;5.90;;;;;;;16.79;nan;-24285.13;5062727;28;20227;-77
2022/10/21 10:19:21;;;;;;;8.80;4.90;;;;;;;16.44;nan;-24275.34;5083218;28;20193;-77
2022/10/21 10:22:07;;;;;;;10.45;5.57;;;;;;;16.86;nan;-24286.78;5083428;28;20185;-76
2022/10/21 10:24:32;;;;;;;10.15;5.95;;;;;;;17.13;nan;-24294.47;5082275;28;20236;-77
2022/10/21 10:27:04;;;;;;;13.10;5.50;;;;;;;16.79;nan;-24284.97;5070324;28;20755;-78
2022/10/21 10:29:29;;;;;;;11.80;6.15;;;;;;;17.13;nan;-24294.47;5068366;28;20196;-78
2022/10/21 10:32:00;;;;;;;11.82;6.03;;;;;;;17.30;nan;-24299.09;5089769;28;20202;-77
2022/10/21 10:34:34;;;;;;;9.95;5.20;;;;;;;16.92;nan;-24288.47;5083824;28;20177;-78
2022/10/21 10:37:07;;;;;;;13.15;5.63;;;;;;;17.19;nan;-24296.16;5072206;28;20275;-78
2022/10/21 10:39:37;;;;;;;10.65;5.75;;;;;;;17.35;nan;-24300.34;5083412;28;20209;-81
2022/10/21 10:42:03;;;;;;;9.18;5.47;;;;;;;17.16;nan;-24295.16;5083983;28;20209;-76
2022/10/21 10:44:37;;;;;;;10.43;5.20;;;;;;;17.15;nan;-24294.91;5084949;28;20276;-79
2022/10/21 10:47:05;;;;;;;8.48;5.47;;;;;;;17.24;nan;-24297.41;5083848;28;20199;-76
2022/10/21 10:49:38;;;;;;;9.23;5.45;;;;;;;17.23;nan;-24297.13;5088650;28;20184;-76
2022/10/21 10:52:09;;;;;;;9.95;5.35;;;;;;;17.29;nan;-24298.81;5067869;28;20237;-75
2022/10/21 10:54:36;;;;;;;12.80;5.65;;;;;;;17.41;nan;-24302.00;5083324;28;20178;-77
2022/10/21 10:57:24;;;;;;;11.20;6.10;;;;;;;17.37;nan;-24300.91;5080716;28;20194;-78
2022/10/21 10:59:55;;;;;;;9.38;5.28;;;;;;;17.33;nan;-24299.91;5081517;28;20285;-78
2022/10/21 11:02:37;;;;;;;8.82;5.03;;;;;;;17.14;nan;-24294.63;5063677;28;20576;-75
2022/10/21 11:05:30;;;;;;;11.52;5.35;;;;;;;16.52;nan;-24277.44;5064274;28;20185;-75
2022/10/21 11:08:05;;;;;;;10.13;5.50;;;;;;;16.86;nan;-24286.78;5082030;28;20174;-78
2022/10/21 11:10:38;;;;;;;11.07;5.28;;;;;;;16.81;nan;-24285.41;5080800;28;20264;-76
2022/10/21 11:13:27;;;;;;;10.07;5.20;;;;;;;16.78;nan;-24284.69;5080395;28;20223;-75
2022/10/21 11:16:30;;;;;;;8.63;5.28;;;;;;;16.76;nan;-24284.28;5084653;28;20193;-79
2022/10/21 11:19:08;;;;;;;11.00;5.25;;;;;;;15.69;nan;-24254.63;5084695;28;20192;-77
2022/10/21 11:21:43;;;;;;;13.25;5.88;;;;;;;16.62;nan;-24280.22;5081282;28;20192;-78
2022/10/21 11:24:17;;;;;;;8.90;4.82;;;;;;;16.86;nan;-24286.94;5082423;28;20228;-79
2022/10/21 11:26:55;;;;;;;10.00;5.07;;;;;;;17.07;nan;-24292.66;5061552;28;20174;-76
2022/10/21 11:29:34;;;;;;;12.95;5.72;;;;;;;17.29;nan;-24298.66;5080189;28;20189;-78
2022/10/21 11:32:26;;;;;;;10.85;5.13;;;;;;;17.31;nan;-24299.22;5079942;28;20177;-79
2022/10/21 11:35:15;;;;;;;10.23;5.22;;;;;;;17.50;nan;-24304.53;5077058;28;20231;-80
2022/10/21 11:38:06;;;;;;;10.18;5.53;;;;;;;17.23;nan;-24297.13;5079254;28;20178;-77
2022/10/21 11:40:42;;;;;;;7.95;5.00;;;;;;;17.06;nan;-24292.38;5079172;28;20194;-78
2022/10/21 11:43:15;;;;;;;11.07;5.47;;;;;;;16.93;nan;-24288.88;5078399;28;20609;-79
2022/10/21 11:45:58;;;;;;;9.00;4.72;;;;;;;16.85;nan;-24286.66;5080466;28;20170;-75
2022/10/21 11:49:01;;;;;;;10.07;5.30;;;;;;;16.93;nan;-24288.75;5078049;28;20185;-78
2022/10/21 11:51:27;;;;;;;12.20;5.65;;;;;;;16.75;nan;-24283.88;5079468;28;20687;-78
2022/10/21 11:54:39;;;;;;;10.75;5.68;;;;;;;16.96;nan;-24289.59;5078600;28;20707;-76
2022/10/21 11:57:09;;;;;;;10.32;5.15;;;;;;;16.59;nan;-24279.53;5004543;28;20281;-77
2022/10/21 11:59:56;;;;;;;10.65;5.03;;;;;;;17.01;nan;-24291.00;5069993;28;20189;-76